Grand Island, NE (68801)

8:21 AM CDT on May 28, 2015 (GMT -0500)
Riverside/Barr | | Change Station
CLOSE
Current Station
Personal Weather Station
Location: Grand Island, NE
Elevation: 1856 ft
Nearby Weather Stations

Elev 1856 ft 40.90 °N, 98.35 °W | Updated 5 seconds ago

Clear
Clear
64.1 °F
Feels Like 64.1 °F
N
0.0
Wind Variable Wind from SW
Gusts 2.0 mph

Today
High -- | Low -- °F
--% Chance of Precip.
Yesterday
High -- | Low -- °F
Precip. -- in
6:05 AM 8:55 PM
Waxing Gibbous, 76% visible
Pressure 30.02 in
Visibility 10.0 miles
Clouds Few 11000 ft
Dew Point 59 °F
Humidity 84%
Rainfall 0.00 in
Snow Depth Not available.
UV 1.0 out of 12
Pollen 7.30 out of 12
Air Quality Not available.
Flu Activity No Activity
METAR KGRI 281253Z 13006KT 10SM FEW110 18/14 A3004 RMK AO2 SLP166 T01780144

More Conditions Fewer Conditions

Pressure 30.02 in
Visibility 10.0 miles
Clouds Few 11000 ft
Dew Point 59 °F
Humidity 84%
Rainfall 0.00 in
Snow Depth Not available.
UV 1.0 out of 12
Pollen 7.30 out of 12
Air Quality Not available.
Flu Activity No Activity
METAR KGRI 281253Z 13006KT 10SM FEW110 18/14 A3004 RMK AO2 SLP166 T01780144

More Conditions Fewer Conditions

10-Day Weather Forecast

Almanac

Astronomy

May. 28, 2015 Rise Set
Actual Time
Civil Twilight
Nautical Twilight
Astronomical Twilight
Moon
Length of Visible Light
Length of Day
Tomorrow will be .
, % of the Moon is Illuminated

Today's Extremes

State Highs State Lows

Community

WunderPhotos

Upload Photos

1,824,971 photos uploaded!

WunderBlogs® & News

Nearby

Air Quality

  Air Quality AQ Index Pollutant
Not available.

Snow Depth

Station Depth Elevation

Earthquake Activity

City Distance Mag. Time & Date
Minimum magnitude displayed is 2.5.

Coastal Water Temperatures

Place Temperature

Stations

Nearby Weather Stations

Station Location Temp. Windchill Dew Point Humidity Wind Precip. Elev Updated Type